NWS Home NWS Lubbock West Texas Mesonet South Sector Latest Conditions as of 0316 PM, Tue Sep 18, 2018

Latest   N   C   S   Daily Sum   3hrΔ   24hrΔ   Soil Data 
Site Map   24hr Precip   72hr Precip   Google Plot


Station Time of Last Temp Dew Pt. RH Wind Direction Wind Speed Wind Gust Max Wind Max Temp Min Temp Max RH Min RH Altimeter 1HR Rain Today's Rain Solar Rad
Andrews 2E  03:10 PM 83 63 52% S1014 18 mph 154° @ 1130 AM 83 66 92 52 30.02" 0 0.00 353
Aspermont 3NE  03:10 PM 87 68 54% S1117 23 mph 177° @ 0255 PM 90 66 98 50 29.95" 0 0.00 238
Big Bend NP - Persimmon Gap  03:10 PM 85 69 59% NE1214 17 mph 33° @ 0152 AM 85 70 97 58 29.97" 0 0.00 851
Big Lake 1WNW  03:10 PM 83 68 60% SE1120 25 mph 170° @ 0949 AM 85 69 95 57 30.01" 0 0.00 254
Brownfield 2S  03:10 PM 84 64 53% S914 18 mph 187° @ 0300 PM 84 65 92 53 30.02" 0 0.00 878
Clyde 2WNW  03:10 PM 89 66 47% S1318 19 mph 175° @ 0259 PM 89 72 92 47 29.99" 0 0.00 872
Colorado City 5NW  03:10 PM 88 68 53% S1620 24 mph 182° @ 0109 PM 89 68 97 52 29.98" 0 0.00 672
Coyanosa 2N  03:10 PM 88 68 52% E811 19 mph 117° @ 1114 AM 89 68 100 50 29.95" 0 0.00 872
Crane 1NNW   03:10 PM 87 67 50% S913 25 mph 168° @ 1203 PM 87 72 86 49 29.98" 0 0.00 879
Dell City  03:10 PM 87 64 46% E45 15 mph 173° @ 1241 AM 87 64 93 45 29.99" 0 0.00 823
Denver City 7WNW  03:10 PM 81 61 52% S1219 20 mph 157° @ 0145 PM 82 62 99 52 30.03" 0 0.00 342
Fluvanna 3WNW  03:10 PM 86 64 50% S1623 27 mph 177° @ 0110 PM 86 68 94 50 29.99" 0 0.00 673
Fort Chadbourne  03:10 PM 85 70 61% S1214 20 mph 185° @ 0147 PM 86 69 99 58 29.99" 0 0.00 518
Fort Lancaster  03:10 PM 85 69 59% SE1215 23 mph 141° @ 1209 PM 86 73 99 57 29.98" 0 0.00 326
Fort McKavett  03:10 PM 86 68 55% S79 23 mph 167° @ 1028 AM 87 68 100 54 30.01" 0 0.00 909
Gail 2ESE  03:10 PM 88 66 52% S1117 24 mph 155° @ 0300 PM 88 67 94 52 29.97" 0 0.00 914
Graham 5SSW  03:10 PM 84 64 55% S1319 28 mph 165° @ 0300 PM 84 69 91 54 29.99" 0 0.00 253
Guadalupe Mtns Natl Park  03:10 PM 80 58 50% E89 15 mph 112° @ 0234 PM 84 61 93 41 30.13" 0 0.00 216
Haskell 1NW  03:10 PM 90 65 47% S1420 23 mph 186° @ 0305 PM 90 71 91 47 29.94" 0 0.00 805
Hobbs NM 5NW  03:10 PM 82 62 51% S1214 17 mph 169° @ 0232 PM 82 64 99 51 30.05" 0 0.00 858
Jayton 1SSE  03:10 PM 88 65 49% S1318 21 mph 199° @ 0135 PM 89 68 93 47 29.96" 0 0.00 507
Junction 1SSW  03:10 PM 86 69 56% S710 17 mph 161° @ 0104 PM 88 68 100 51 29.99" 0 0.00 492
Lake Alan Henry 1NW  03:10 PM 87 67 50% S1720 23 mph 226° @ 0152 PM 88 70 90 49 29.97" 0 0.00 547
Lamesa 2SE  03:10 PM 85 64 52% S1218 21 mph 184° @ 0135 PM 85 65 96 52 30.01" 0 0.00 633
Lomax 1SSE  03:10 PM 86 66 52% S1316 27 mph 169° @ 1252 PM 87 68 95 50 29.99" 0 0.00 935
McCamey 1SSW  03:10 PM 86 68 54% SE1823 23 mph 141° @ 0310 PM 87 72 89 54 29.98" 0 0.00 553
Menard 2NW   03:10 PM 87 70 58% S810 19 mph 153° @ 1040 AM 87 67 100 56 30.00" 0 0.00 905
Mertzon 3NNE  03:05 PM 87 67 53% S1215 20 mph 164° @ 0254 PM 87 70 100 52 30.00" 0 0.00 811
New Home  03:10 PM 85 65 52% S1114 21 mph 195° @ 0219 PM 85 66 96 52 30.03" 0 0.00 963
O'Donnell 1N  03:10 PM 85 61 47% S1217 23 mph 201° @ 0110 PM 85 68 89 47 30.00" 0 0.00 620
Plains 3N  03:10 PM 82 62 53% S1118 20 mph 180° @ 0235 PM 82 64 99 53 30.03" 0 0.00 838
Post 1NE  03:10 PM 88 64 48% S1422 23 mph 182° @ 0225 PM 88 70 85 48 29.98" 0 0.00 915
Rotan 5W  03:10 PM 87 68 53% S1516 23 mph 195° @ 1248 PM 89 69 94 51 29.97" 0 0.00 369
San Angelo 7NW  03:10 PM 87 66 51% S913 20 mph 176° @ 1050 AM 87 70 93 51 29.98" 0 0.00 784
Seagraves 1SW  03:10 PM 84 65 56% S1217 17 mph 169° @ 0310 PM 84 62 98 56 --0 0.00 884
Seminole 2NNE  03:10 PM 82 62 53% S1114 18 mph 189° @ 0235 PM 83 63 95 52 30.02" 0 0.00 542
Sierra Blanca 1SSE  03:10 PM 84 62 47% NE57 18 mph 120° @ 0244 PM 87 63 98 42 30.05" 0 0.00 858
Snyder 3E  03:10 PM 88 68 55% S1218 22 mph 175° @ 0245 PM 88 67 100 55 29.99" 0 0.00 468
Snyder 3SSW  03:10 PM 85 68 57% S1113 21 mph 182° @ 1216 PM 87 69 96 54 29.99" 0 0.00 320
St. Lawrence 5SW  03:10 PM 85 66 54% S1623 25 mph 172° @ 0200 PM 86 67 96 53 30.00" 0 0.01 718
Stamford 5ESE  03:10 PM 90 68 47% S1319 23 mph 191° @ 0157 PM 91 70 95 47 29.95" 0 0.00 782
Sterling City 4WSW  03:10 PM 86 66 52% SE1619 22 mph 166° @ 1136 AM 86 67 100 51 30.00" 0 0.00 572
Sundown 8WSW  03:10 PM 82 62 53% S1215 21 mph 172° @ 0145 PM 82 61 97 53 30.03" 0 0.00 657
Sweetwater 11SW   03:10 PM 83 70 66% S1012 23 mph 175° @ 1223 PM 85 70 100 61 30.02" 0 0.00 1007
Tahoka 3NNE  03:10 PM 83 65 54% S1315 22 mph 184° @ 1229 PM 86 66 94 51 30.01" 0 0.00 454
Tarzan 2WNW  03:10 PM 84 67 56% S1214 23 mph 173° @ 0153 PM 86 68 96 52 30.00" 0 0.00 246
Tatum NM 2SW  03:10 PM 83 61 50% S1320 20 mph 159° @ 0310 PM 84 62 95 49 30.04" 0 0.00 556
Throckmorton 1SW  03:10 PM 92 66 43% S1014 20 mph 146° @ 0248 PM 93 70 93 42 29.94" 0 0.00 990
Van Horn 3ENE  03:10 PM 86 63 47% SE1012 17 mph 192° @ 0223 PM 86 64 98 44 30.01" 0 0.01 904
Wall 2E  03:10 PM 87 69 56% S810 19 mph 168° @ 1021 AM 87 67 99 56 29.99" 0 0.00 877
Weinert 2NNE  03:10 PM 90 68 48% S1417 20 mph 238° @ 0133 PM 90 71 90 48 29.94" 0 0.00 143
Welch  03:10 PM 84 66 56% S1012 21 mph 212° @ 0127 PM 85 63 100 54 30.02" 0 0.00 475

West Texas Mesonet Home   Site Map/Menu  NWS Lubbock Soil Data  Daily Summary Page  24hr Precip  72hr Precip  Google Plot